sensor_id;sensor_type;location;lat;lon;timestamp;temperature;humidity
72905;DHT22;61048;52.162;4.516;2023-02-22T00:01:41;15.50;65.80
72905;DHT22;61048;52.162;4.516;2023-02-22T00:04:16;15.50;65.90
72905;DHT22;61048;52.162;4.516;2023-02-22T00:06:46;15.50;66.00
72905;DHT22;61048;52.162;4.516;2023-02-22T00:09:13;15.50;65.90
72905;DHT22;61048;52.162;4.516;2023-02-22T00:11:46;15.50;65.90
72905;DHT22;61048;52.162;4.516;2023-02-22T00:14:13;15.50;65.60
72905;DHT22;61048;52.162;4.516;2023-02-22T00:16:40;15.50;65.70
72905;DHT22;61048;52.162;4.516;2023-02-22T00:19:07;15.50;65.60
72905;DHT22;61048;52.162;4.516;2023-02-22T00:21:36;15.50;65.80
72905;DHT22;61048;52.162;4.516;2023-02-22T00:24:03;15.50;65.70
72905;DHT22;61048;52.162;4.516;2023-02-22T00:26:48;15.50;65.70
72905;DHT22;61048;52.162;4.516;2023-02-22T00:29:14;15.40;65.60
72905;DHT22;61048;52.162;4.516;2023-02-22T00:31:42;15.50;65.90
72905;DHT22;61048;52.162;4.516;2023-02-22T00:34:09;15.50;66.00
72905;DHT22;61048;52.162;4.516;2023-02-22T00:36:37;15.40;66.00
72905;DHT22;61048;52.162;4.516;2023-02-22T00:39:04;15.50;65.80
72905;DHT22;61048;52.162;4.516;2023-02-22T00:41:32;15.50;65.60
72905;DHT22;61048;52.162;4.516;2023-02-22T00:43:58;15.50;65.80
72905;DHT22;61048;52.162;4.516;2023-02-22T00:46:25;15.40;65.80
72905;DHT22;61048;52.162;4.516;2023-02-22T00:48:52;15.40;65.80
72905;DHT22;61048;52.162;4.516;2023-02-22T00:51:19;15.40;65.70
72905;DHT22;61048;52.162;4.516;2023-02-22T00:53:47;15.40;65.60
72905;DHT22;61048;52.162;4.516;2023-02-22T00:56:14;15.40;65.90
72905;DHT22;61048;52.162;4.516;2023-02-22T00:58:41;15.40;65.70
72905;DHT22;61048;52.162;4.516;2023-02-22T01:01:09;15.40;65.90
72905;DHT22;61048;52.162;4.516;2023-02-22T01:03:35;15.40;65.80
72905;DHT22;61048;52.162;4.516;2023-02-22T01:06:05;15.40;65.70
72905;DHT22;61048;52.162;4.516;2023-02-22T01:08:32;15.40;65.70
72905;DHT22;61048;52.162;4.516;2023-02-22T01:11:00;15.40;65.60
72905;DHT22;61048;52.162;4.516;2023-02-22T01:13:27;15.40;65.90
72905;DHT22;61048;52.162;4.516;2023-02-22T01:15:54;15.40;65.70
72905;DHT22;61048;52.162;4.516;2023-02-22T01:18:22;15.40;65.70
72905;DHT22;61048;52.162;4.516;2023-02-22T01:20:50;15.30;65.80
72905;DHT22;61048;52.162;4.516;2023-02-22T01:23:17;15.40;65.70
72905;DHT22;61048;52.162;4.516;2023-02-22T01:25:44;15.30;65.60
72905;DHT22;61048;52.162;4.516;2023-02-22T01:28:12;15.30;65.70
72905;DHT22;61048;52.162;4.516;2023-02-22T01:30:39;15.30;65.90
72905;DHT22;61048;52.162;4.516;2023-02-22T01:33:07;15.30;65.90
72905;DHT22;61048;52.162;4.516;2023-02-22T01:35:36;15.30;65.90
72905;DHT22;61048;52.162;4.516;2023-02-22T01:38:05;15.30;66.10
72905;DHT22;61048;52.162;4.516;2023-02-22T01:40:35;15.30;65.90
72905;DHT22;61048;52.162;4.516;2023-02-22T01:43:05;15.30;66.00
72905;DHT22;61048;52.162;4.516;2023-02-22T01:45:46;15.30;65.90
72905;DHT22;61048;52.162;4.516;2023-02-22T01:48:17;15.30;65.90
72905;DHT22;61048;52.162;4.516;2023-02-22T01:50:49;15.30;66.10
72905;DHT22;61048;52.162;4.516;2023-02-22T01:53:19;15.30;66.00
72905;DHT22;61048;52.162;4.516;2023-02-22T01:55:46;15.30;66.10
72905;DHT22;61048;52.162;4.516;2023-02-22T01:58:16;15.30;66.10
72905;DHT22;61048;52.162;4.516;2023-02-22T02:00:45;15.30;66.20
72905;DHT22;61048;52.162;4.516;2023-02-22T02:03:17;15.30;66.20
72905;DHT22;61048;52.162;4.516;2023-02-22T02:05:47;15.30;66.20
72905;DHT22;61048;52.162;4.516;2023-02-22T02:08:21;15.30;66.10
72905;DHT22;61048;52.162;4.516;2023-02-22T02:10:52;15.30;66.10
72905;DHT22;61048;52.162;4.516;2023-02-22T02:13:20;15.30;66.00
72905;DHT22;61048;52.162;4.516;2023-02-22T02:15:48;15.30;66.30
72905;DHT22;61048;52.162;4.516;2023-02-22T02:18:17;15.30;66.30
72905;DHT22;61048;52.162;4.516;2023-02-22T02:20:53;15.30;66.10
72905;DHT22;61048;52.162;4.516;2023-02-22T02:24:00;15.30;66.20
72905;DHT22;61048;52.162;4.516;2023-02-22T02:26:58;15.30;66.10
72905;DHT22;61048;52.162;4.516;2023-02-22T02:32:50;15.30;66.40
72905;DHT22;61048;52.162;4.516;2023-02-22T02:35:18;15.30;66.30
72905;DHT22;61048;52.162;4.516;2023-02-22T02:37:52;15.30;66.20
72905;DHT22;61048;52.162;4.516;2023-02-22T02:40:28;15.20;66.20
72905;DHT22;61048;52.162;4.516;2023-02-22T02:43:00;15.20;66.40
72905;DHT22;61048;52.162;4.516;2023-02-22T02:45:35;15.20;66.30
72905;DHT22;61048;52.162;4.516;2023-02-22T02:48:08;15.20;66.20
72905;DHT22;61048;52.162;4.516;2023-02-22T02:50:41;15.20;66.30
72905;DHT22;61048;52.162;4.516;2023-02-22T02:53:10;15.20;66.20
72905;DHT22;61048;52.162;4.516;2023-02-22T02:55:38;15.20;66.20
72905;DHT22;61048;52.162;4.516;2023-02-22T02:58:06;15.20;66.30
72905;DHT22;61048;52.162;4.516;2023-02-22T03:00:36;15.20;66.30
72905;DHT22;61048;52.162;4.516;2023-02-22T03:03:18;15.20;66.30
72905;DHT22;61048;52.162;4.516;2023-02-22T03:06:05;15.20;66.30
72905;DHT22;61048;52.162;4.516;2023-02-22T03:08:41;15.20;66.60
72905;DHT22;61048;52.162;4.516;2023-02-22T03:11:13;15.20;66.60
72905;DHT22;61048;52.162;4.516;2023-02-22T03:13:48;15.20;66.60
72905;DHT22;61048;52.162;4.516;2023-02-22T03:16:23;15.20;66.50
72905;DHT22;61048;52.162;4.516;2023-02-22T03:19:02;15.20;66.80
72905;DHT22;61048;52.162;4.516;2023-02-22T03:21:35;15.20;67.00
72905;DHT22;61048;52.162;4.516;2023-02-22T03:24:07;15.20;66.60
72905;DHT22;61048;52.162;4.516;2023-02-22T03:26:40;15.20;66.80
72905;DHT22;61048;52.162;4.516;2023-02-22T03:29:09;15.20;66.50
72905;DHT22;61048;52.162;4.516;2023-02-22T03:31:39;15.20;66.60
72905;DHT22;61048;52.162;4.516;2023-02-22T03:34:12;15.20;66.60
72905;DHT22;61048;52.162;4.516;2023-02-22T03:36:43;15.30;66.70
72905;DHT22;61048;52.162;4.516;2023-02-22T03:39:14;15.30;66.90
72905;DHT22;61048;52.162;4.516;2023-02-22T03:41:44;15.20;66.70
72905;DHT22;61048;52.162;4.516;2023-02-22T03:44:19;15.20;66.80
72905;DHT22;61048;52.162;4.516;2023-02-22T03:46:49;15.20;66.70
72905;DHT22;61048;52.162;4.516;2023-02-22T03:49:25;15.20;66.70
72905;DHT22;61048;52.162;4.516;2023-02-22T03:51:54;15.20;66.80
72905;DHT22;61048;52.162;4.516;2023-02-22T03:54:21;15.30;66.60
72905;DHT22;61048;52.162;4.516;2023-02-22T03:56:51;15.20;66.90
72905;DHT22;61048;52.162;4.516;2023-02-22T03:59:20;15.30;66.80
72905;DHT22;61048;52.162;4.516;2023-02-22T04:01:52;15.20;66.90
72905;DHT22;61048;52.162;4.516;2023-02-22T04:04:20;15.20;66.60
72905;DHT22;61048;52.162;4.516;2023-02-22T04:06:48;15.30;66.70
72905;DHT22;61048;52.162;4.516;2023-02-22T04:09:16;15.30;66.80
72905;DHT22;61048;52.162;4.516;2023-02-22T04:11:44;15.20;66.70
72905;DHT22;61048;52.162;4.516;2023-02-22T04:14:11;15.30;66.60
72905;DHT22;61048;52.162;4.516;2023-02-22T04:16:38;15.20;66.70
72905;DHT22;61048;52.162;4.516;2023-02-22T04:19:05;15.20;66.50
72905;DHT22;61048;52.162;4.516;2023-02-22T04:21:34;15.20;66.90
72905;DHT22;61048;52.162;4.516;2023-02-22T04:24:00;15.20;66.60
72905;DHT22;61048;52.162;4.516;2023-02-22T04:26:27;15.20;66.30
72905;DHT22;61048;52.162;4.516;2023-02-22T04:28:54;15.20;66.40
72905;DHT22;61048;52.162;4.516;2023-02-22T04:31:21;15.20;66.30
72905;DHT22;61048;52.162;4.516;2023-02-22T04:33:48;15.20;66.30
72905;DHT22;61048;52.162;4.516;2023-02-22T04:36:15;15.20;66.30
72905;DHT22;61048;52.162;4.516;2023-02-22T04:38:44;15.20;66.50
72905;DHT22;61048;52.162;4.516;2023-02-22T04:41:10;15.20;66.40
72905;DHT22;61048;52.162;4.516;2023-02-22T04:43:37;15.20;66.30
72905;DHT22;61048;52.162;4.516;2023-02-22T04:46:04;15.20;66.40
72905;DHT22;61048;52.162;4.516;2023-02-22T04:48:31;15.20;66.40
72905;DHT22;61048;52.162;4.516;2023-02-22T04:50:58;15.20;66.30
72905;DHT22;61048;52.162;4.516;2023-02-22T04:53:25;15.20;66.20
72905;DHT22;61048;52.162;4.516;2023-02-22T04:55:53;15.20;66.50
72905;DHT22;61048;52.162;4.516;2023-02-22T04:58:20;15.20;66.40
72905;DHT22;61048;52.162;4.516;2023-02-22T05:00:47;15.20;66.60
72905;DHT22;61048;52.162;4.516;2023-02-22T05:03:14;15.20;66.70
72905;DHT22;61048;52.162;4.516;2023-02-22T05:05:42;15.20;66.40
72905;DHT22;61048;52.162;4.516;2023-02-22T05:08:09;15.20;66.50
72905;DHT22;61048;52.162;4.516;2023-02-22T05:10:36;15.20;66.50
72905;DHT22;61048;52.162;4.516;2023-02-22T05:13:04;15.20;66.70
72905;DHT22;61048;52.162;4.516;2023-02-22T05:15:31;15.20;66.70
72905;DHT22;61048;52.162;4.516;2023-02-22T05:17:58;15.20;66.60
72905;DHT22;61048;52.162;4.516;2023-02-22T05:20:27;15.20;66.60
72905;DHT22;61048;52.162;4.516;2023-02-22T05:22:54;15.20;66.50
72905;DHT22;61048;52.162;4.516;2023-02-22T05:25:21;15.20;66.40
72905;DHT22;61048;52.162;4.516;2023-02-22T05:27:50;15.20;66.60
72905;DHT22;61048;52.162;4.516;2023-02-22T05:30:20;15.20;66.50
72905;DHT22;61048;52.162;4.516;2023-02-22T05:32:48;15.20;66.60
72905;DHT22;61048;52.162;4.516;2023-02-22T05:35:16;15.20;66.70
72905;DHT22;61048;52.162;4.516;2023-02-22T05:37:43;15.20;66.90
72905;DHT22;61048;52.162;4.516;2023-02-22T05:40:10;15.20;66.70
72905;DHT22;61048;52.162;4.516;2023-02-22T05:42:39;15.20;66.80
72905;DHT22;61048;52.162;4.516;2023-02-22T05:45:06;15.20;66.70
72905;DHT22;61048;52.162;4.516;2023-02-22T05:47:35;15.20;66.60
72905;DHT22;61048;52.162;4.516;2023-02-22T05:50:01;15.20;66.90
72905;DHT22;61048;52.162;4.516;2023-02-22T05:52:28;15.20;66.70
72905;DHT22;61048;52.162;4.516;2023-02-22T05:54:55;15.20;66.70
72905;DHT22;61048;52.162;4.516;2023-02-22T05:57:22;15.20;66.80
72905;DHT22;61048;52.162;4.516;2023-02-22T05:59:49;15.20;66.60
72905;DHT22;61048;52.162;4.516;2023-02-22T06:02:16;15.20;66.90
72905;DHT22;61048;52.162;4.516;2023-02-22T06:04:45;15.20;66.90
72905;DHT22;61048;52.162;4.516;2023-02-22T06:07:13;15.20;66.80
72905;DHT22;61048;52.162;4.516;2023-02-22T06:09:40;15.20;66.90
72905;DHT22;61048;52.162;4.516;2023-02-22T06:12:08;15.20;67.00
72905;DHT22;61048;52.162;4.516;2023-02-22T06:14:35;15.20;66.90
72905;DHT22;61048;52.162;4.516;2023-02-22T06:17:02;15.20;66.90
72905;DHT22;61048;52.162;4.516;2023-02-22T06:19:29;15.20;66.80
72905;DHT22;61048;52.162;4.516;2023-02-22T06:21:58;15.20;66.90
72905;DHT22;61048;52.162;4.516;2023-02-22T06:24:27;15.20;67.00
72905;DHT22;61048;52.162;4.516;2023-02-22T06:26:54;15.20;66.90
72905;DHT22;61048;52.162;4.516;2023-02-22T06:29:21;15.20;66.90
72905;DHT22;61048;52.162;4.516;2023-02-22T06:31:49;15.20;66.80
72905;DHT22;61048;52.162;4.516;2023-02-22T06:34:16;15.20;66.60
72905;DHT22;61048;52.162;4.516;2023-02-22T06:36:43;15.20;66.70
72905;DHT22;61048;52.162;4.516;2023-02-22T06:39:14;15.20;66.80
72905;DHT22;61048;52.162;4.516;2023-02-22T06:41:42;15.20;66.90
72905;DHT22;61048;52.162;4.516;2023-02-22T06:44:09;15.20;67.00
72905;DHT22;61048;52.162;4.516;2023-02-22T06:46:36;15.20;67.10
72905;DHT22;61048;52.162;4.516;2023-02-22T06:49:04;15.20;67.00
72905;DHT22;61048;52.162;4.516;2023-02-22T06:51:35;15.20;66.90
72905;DHT22;61048;52.162;4.516;2023-02-22T06:54:02;15.10;66.70
72905;DHT22;61048;52.162;4.516;2023-02-22T06:56:32;15.10;66.50
72905;DHT22;61048;52.162;4.516;2023-02-22T06:58:59;15.10;66.50
72905;DHT22;61048;52.162;4.516;2023-02-22T07:01:26;15.10;66.50
72905;DHT22;61048;52.162;4.516;2023-02-22T07:03:53;15.00;66.40
72905;DHT22;61048;52.162;4.516;2023-02-22T07:06:21;15.00;66.30
72905;DHT22;61048;52.162;4.516;2023-02-22T07:08:48;15.00;66.10
72905;DHT22;61048;52.162;4.516;2023-02-22T07:11:15;15.00;66.00
72905;DHT22;61048;52.162;4.516;2023-02-22T07:13:43;15.20;66.90
72905;DHT22;61048;52.162;4.516;2023-02-22T07:16:10;15.20;67.20
72905;DHT22;61048;52.162;4.516;2023-02-22T07:18:37;15.20;66.70
72905;DHT22;61048;52.162;4.516;2023-02-22T07:21:04;15.20;66.60
72905;DHT22;61048;52.162;4.516;2023-02-22T07:23:32;15.20;66.90
72905;DHT22;61048;52.162;4.516;2023-02-22T07:25:59;15.10;66.70
72905;DHT22;61048;52.162;4.516;2023-02-22T07:28:26;15.10;68.40
72905;DHT22;61048;52.162;4.516;2023-02-22T07:30:55;15.20;68.20
72905;DHT22;61048;52.162;4.516;2023-02-22T07:33:23;15.20;68.20
72905;DHT22;61048;52.162;4.516;2023-02-22T07:35:51;15.20;68.30
72905;DHT22;61048;52.162;4.516;2023-02-22T07:38:19;15.30;69.20
72905;DHT22;61048;52.162;4.516;2023-02-22T07:40:46;15.30;69.40
72905;DHT22;61048;52.162;4.516;2023-02-22T07:43:15;15.40;69.40
72905;DHT22;61048;52.162;4.516;2023-02-22T07:45:43;15.40;69.50
72905;DHT22;61048;52.162;4.516;2023-02-22T07:48:12;15.40;69.90
72905;DHT22;61048;52.162;4.516;2023-02-22T07:50:39;15.40;69.70
72905;DHT22;61048;52.162;4.516;2023-02-22T07:53:09;15.40;69.60
72905;DHT22;61048;52.162;4.516;2023-02-22T07:55:37;15.40;69.80
72905;DHT22;61048;52.162;4.516;2023-02-22T07:58:05;15.40;69.60
72905;DHT22;61048;52.162;4.516;2023-02-22T08:00:34;15.40;69.50
72905;DHT22;61048;52.162;4.516;2023-02-22T08:03:04;15.40;69.60
72905;DHT22;61048;52.162;4.516;2023-02-22T08:05:33;15.40;69.40
72905;DHT22;61048;52.162;4.516;2023-02-22T08:08:00;15.40;69.50
72905;DHT22;61048;52.162;4.516;2023-02-22T08:10:27;15.40;69.20
72905;DHT22;61048;52.162;4.516;2023-02-22T08:12:55;15.40;69.10
72905;DHT22;61048;52.162;4.516;2023-02-22T08:15:25;15.40;69.10
72905;DHT22;61048;52.162;4.516;2023-02-22T08:17:53;15.30;69.00
72905;DHT22;61048;52.162;4.516;2023-02-22T08:20:20;15.30;68.80
72905;DHT22;61048;52.162;4.516;2023-02-22T08:22:49;15.30;68.80
72905;DHT22;61048;52.162;4.516;2023-02-22T08:25:17;15.30;68.60
72905;DHT22;61048;52.162;4.516;2023-02-22T08:27:45;15.30;68.90
72905;DHT22;61048;52.162;4.516;2023-02-22T08:30:14;15.30;68.80
72905;DHT22;61048;52.162;4.516;2023-02-22T08:32:41;15.30;68.80
72905;DHT22;61048;52.162;4.516;2023-02-22T08:35:09;15.30;68.70
72905;DHT22;61048;52.162;4.516;2023-02-22T08:37:41;15.30;68.70
72905;DHT22;61048;52.162;4.516;2023-02-22T08:40:10;15.30;68.70
72905;DHT22;61048;52.162;4.516;2023-02-22T08:42:37;15.30;68.50
72905;DHT22;61048;52.162;4.516;2023-02-22T08:45:05;15.30;68.50
72905;DHT22;61048;52.162;4.516;2023-02-22T08:47:32;15.30;68.40
72905;DHT22;61048;52.162;4.516;2023-02-22T08:50:01;15.30;68.50
72905;DHT22;61048;52.162;4.516;2023-02-22T08:52:28;15.30;68.30
72905;DHT22;61048;52.162;4.516;2023-02-22T08:54:55;15.30;68.10
72905;DHT22;61048;52.162;4.516;2023-02-22T08:57:23;15.30;68.20
72905;DHT22;61048;52.162;4.516;2023-02-22T08:59:50;15.30;68.00
72905;DHT22;61048;52.162;4.516;2023-02-22T09:02:19;15.30;67.90
72905;DHT22;61048;52.162;4.516;2023-02-22T09:04:47;15.30;67.80
72905;DHT22;61048;52.162;4.516;2023-02-22T09:07:14;15.30;67.70
72905;DHT22;61048;52.162;4.516;2023-02-22T09:09:41;15.30;67.80
72905;DHT22;61048;52.162;4.516;2023-02-22T09:12:08;15.30;67.90
72905;DHT22;61048;52.162;4.516;2023-02-22T09:14:37;15.30;67.50
72905;DHT22;61048;52.162;4.516;2023-02-22T09:17:04;15.30;67.40
72905;DHT22;61048;52.162;4.516;2023-02-22T09:19:31;15.30;67.50
72905;DHT22;61048;52.162;4.516;2023-02-22T09:21:58;15.30;67.30
72905;DHT22;61048;52.162;4.516;2023-02-22T09:24:25;15.20;67.30
72905;DHT22;61048;52.162;4.516;2023-02-22T09:26:53;15.20;67.10
72905;DHT22;61048;52.162;4.516;2023-02-22T09:29:21;15.30;67.30
72905;DHT22;61048;52.162;4.516;2023-02-22T09:31:53;15.20;67.00
72905;DHT22;61048;52.162;4.516;2023-02-22T09:34:23;15.20;66.80
72905;DHT22;61048;52.162;4.516;2023-02-22T09:36:54;15.20;67.00
72905;DHT22;61048;52.162;4.516;2023-02-22T09:39:22;15.20;66.80
72905;DHT22;61048;52.162;4.516;2023-02-22T09:41:55;15.20;66.60
72905;DHT22;61048;52.162;4.516;2023-02-22T09:44:34;15.20;66.70
72905;DHT22;61048;52.162;4.516;2023-02-22T09:47:04;15.20;66.60
72905;DHT22;61048;52.162;4.516;2023-02-22T09:49:37;15.20;66.70
72905;DHT22;61048;52.162;4.516;2023-02-22T09:52:07;15.20;66.60
72905;DHT22;61048;52.162;4.516;2023-02-22T09:54:40;15.20;66.70
72905;DHT22;61048;52.162;4.516;2023-02-22T09:57:13;15.30;66.80
72905;DHT22;61048;52.162;4.516;2023-02-22T09:59:45;15.30;66.90
72905;DHT22;61048;52.162;4.516;2023-02-22T10:02:21;15.30;66.80
72905;DHT22;61048;52.162;4.516;2023-02-22T10:04:53;15.30;66.70
72905;DHT22;61048;52.162;4.516;2023-02-22T10:07:27;15.30;66.70
72905;DHT22;61048;52.162;4.516;2023-02-22T10:09:56;15.30;66.50
72905;DHT22;61048;52.162;4.516;2023-02-22T10:12:36;15.30;66.60
72905;DHT22;61048;52.162;4.516;2023-02-22T10:15:26;15.30;66.60
72905;DHT22;61048;52.162;4.516;2023-02-22T10:18:04;15.30;66.50
72905;DHT22;61048;52.162;4.516;2023-02-22T10:20:46;15.30;66.40
72905;DHT22;61048;52.162;4.516;2023-02-22T10:23:19;15.30;66.40
72905;DHT22;61048;52.162;4.516;2023-02-22T10:25:55;15.30;66.40
72905;DHT22;61048;52.162;4.516;2023-02-22T10:28:26;15.30;66.30
72905;DHT22;61048;52.162;4.516;2023-02-22T10:30:57;15.30;66.40
72905;DHT22;61048;52.162;4.516;2023-02-22T10:33:29;15.30;66.50
72905;DHT22;61048;52.162;4.516;2023-02-22T10:35:59;15.30;66.60
72905;DHT22;61048;52.162;4.516;2023-02-22T10:38:32;15.30;66.60
72905;DHT22;61048;52.162;4.516;2023-02-22T10:41:03;15.30;66.60
72905;DHT22;61048;52.162;4.516;2023-02-22T10:43:42;15.30;66.50
72905;DHT22;61048;52.162;4.516;2023-02-22T10:46:12;15.30;66.50
72905;DHT22;61048;52.162;4.516;2023-02-22T10:48:44;15.30;66.40
72905;DHT22;61048;52.162;4.516;2023-02-22T10:51:12;15.30;66.50
72905;DHT22;61048;52.162;4.516;2023-02-22T10:53:39;15.30;66.30
72905;DHT22;61048;52.162;4.516;2023-02-22T10:56:13;15.40;66.30
72905;DHT22;61048;52.162;4.516;2023-02-22T10:58:46;15.40;66.30
72905;DHT22;61048;52.162;4.516;2023-02-22T11:01:23;15.40;66.30
72905;DHT22;61048;52.162;4.516;2023-02-22T11:04:02;15.40;66.20
72905;DHT22;61048;52.162;4.516;2023-02-22T11:06:31;15.40;66.10
72905;DHT22;61048;52.162;4.516;2023-02-22T11:09:08;15.40;66.10
72905;DHT22;61048;52.162;4.516;2023-02-22T11:11:40;15.40;66.00
72905;DHT22;61048;52.162;4.516;2023-02-22T11:14:08;15.40;66.00
72905;DHT22;61048;52.162;4.516;2023-02-22T11:16:38;15.40;65.90
72905;DHT22;61048;52.162;4.516;2023-02-22T11:19:18;15.40;65.90
72905;DHT22;61048;52.162;4.516;2023-02-22T11:21:49;15.50;65.80
72905;DHT22;61048;52.162;4.516;2023-02-22T11:24:19;15.50;66.50
72905;DHT22;61048;52.162;4.516;2023-02-22T11:26:54;15.60;67.00
72905;DHT22;61048;52.162;4.516;2023-02-22T11:29:27;15.60;67.50
72905;DHT22;61048;52.162;4.516;2023-02-22T11:31:57;15.70;67.80
72905;DHT22;61048;52.162;4.516;2023-02-22T11:34:32;15.80;67.60
72905;DHT22;61048;52.162;4.516;2023-02-22T11:40:07;15.90;67.50
72905;DHT22;61048;52.162;4.516;2023-02-22T11:42:36;15.90;67.50
72905;DHT22;61048;52.162;4.516;2023-02-22T11:45:12;15.90;67.80
72905;DHT22;61048;52.162;4.516;2023-02-22T11:47:50;16.00;67.40
72905;DHT22;61048;52.162;4.516;2023-02-22T11:50:26;15.90;66.80
72905;DHT22;61048;52.162;4.516;2023-02-22T11:53:02;15.80;67.20
72905;DHT22;61048;52.162;4.516;2023-02-22T11:55:34;15.80;66.90
72905;DHT22;61048;52.162;4.516;2023-02-22T11:58:14;15.80;66.70
72905;DHT22;61048;52.162;4.516;2023-02-22T12:00:49;15.70;66.40
72905;DHT22;61048;52.162;4.516;2023-02-22T12:03:31;15.70;66.60
72905;DHT22;61048;52.162;4.516;2023-02-22T12:06:16;15.70;66.50
72905;DHT22;61048;52.162;4.516;2023-02-22T12:09:02;15.70;66.40
72905;DHT22;61048;52.162;4.516;2023-02-22T12:11:38;15.70;66.40
72905;DHT22;61048;52.162;4.516;2023-02-22T12:14:18;15.70;66.20
72905;DHT22;61048;52.162;4.516;2023-02-22T12:17:10;15.70;66.00
72905;DHT22;61048;52.162;4.516;2023-02-22T12:19:41;15.70;65.70
72905;DHT22;61048;52.162;4.516;2023-02-22T12:22:14;15.70;65.90
72905;DHT22;61048;52.162;4.516;2023-02-22T12:24:46;15.70;65.90
72905;DHT22;61048;52.162;4.516;2023-02-22T12:27:17;15.70;65.60
72905;DHT22;61048;52.162;4.516;2023-02-22T12:29:47;15.70;65.80
72905;DHT22;61048;52.162;4.516;2023-02-22T12:32:18;15.70;65.70
72905;DHT22;61048;52.162;4.516;2023-02-22T12:34:53;15.70;66.00
72905;DHT22;61048;52.162;4.516;2023-02-22T12:37:25;15.70;65.90
72905;DHT22;61048;52.162;4.516;2023-02-22T12:39:58;15.70;66.10
72905;DHT22;61048;52.162;4.516;2023-02-22T12:42:40;15.70;66.10
72905;DHT22;61048;52.162;4.516;2023-02-22T12:45:12;15.70;66.20
72905;DHT22;61048;52.162;4.516;2023-02-22T12:47:44;15.70;66.30
72905;DHT22;61048;52.162;4.516;2023-02-22T12:50:17;15.80;66.00
72905;DHT22;61048;52.162;4.516;2023-02-22T12:52:50;15.70;65.90
72905;DHT22;61048;52.162;4.516;2023-02-22T12:55:23;15.70;66.10
72905;DHT22;61048;52.162;4.516;2023-02-22T12:57:55;15.70;66.20
72905;DHT22;61048;52.162;4.516;2023-02-22T13:00:28;15.80;66.10
72905;DHT22;61048;52.162;4.516;2023-02-22T13:02:59;15.80;66.00
72905;DHT22;61048;52.162;4.516;2023-02-22T13:05:29;15.80;66.00
72905;DHT22;61048;52.162;4.516;2023-02-22T13:08:12;15.70;66.00
72905;DHT22;61048;52.162;4.516;2023-02-22T13:10:55;15.80;66.10
72905;DHT22;61048;52.162;4.516;2023-02-22T13:13:31;15.80;66.10
72905;DHT22;61048;52.162;4.516;2023-02-22T13:16:06;15.80;66.10
72905;DHT22;61048;52.162;4.516;2023-02-22T13:18:40;15.80;66.10
72905;DHT22;61048;52.162;4.516;2023-02-22T13:21:16;15.80;66.10
72905;DHT22;61048;52.162;4.516;2023-02-22T13:23:52;15.80;65.80
72905;DHT22;61048;52.162;4.516;2023-02-22T13:26:32;15.80;66.20
72905;DHT22;61048;52.162;4.516;2023-02-22T13:29:04;15.80;66.00
72905;DHT22;61048;52.162;4.516;2023-02-22T13:31:53;15.80;66.30
72905;DHT22;61048;52.162;4.516;2023-02-22T13:34:45;15.90;66.20
72905;DHT22;61048;52.162;4.516;2023-02-22T13:37:26;15.90;66.30
72905;DHT22;61048;52.162;4.516;2023-02-22T13:40:15;15.90;66.30
72905;DHT22;61048;52.162;4.516;2023-02-22T13:46:05;15.90;66.30
72905;DHT22;61048;52.162;4.516;2023-02-22T13:48:49;15.90;66.30
72905;DHT22;61048;52.162;4.516;2023-02-22T13:51:32;15.90;66.10
72905;DHT22;61048;52.162;4.516;2023-02-22T13:54:07;15.90;66.20
72905;DHT22;61048;52.162;4.516;2023-02-22T13:56:42;15.90;66.10
72905;DHT22;61048;52.162;4.516;2023-02-22T13:59:22;15.90;66.00
72905;DHT22;61048;52.162;4.516;2023-02-22T14:01:51;15.90;66.00
72905;DHT22;61048;52.162;4.516;2023-02-22T14:04:43;15.90;66.00
72905;DHT22;61048;52.162;4.516;2023-02-22T14:10:42;15.90;66.00
72905;DHT22;61048;52.162;4.516;2023-02-22T14:13:12;16.00;66.00
72905;DHT22;61048;52.162;4.516;2023-02-22T14:18:41;16.00;66.10
72905;DHT22;61048;52.162;4.516;2023-02-22T14:21:10;16.00;66.10
72905;DHT22;61048;52.162;4.516;2023-02-22T14:23:38;16.00;66.10
72905;DHT22;61048;52.162;4.516;2023-02-22T14:26:14;16.00;66.10
72905;DHT22;61048;52.162;4.516;2023-02-22T14:28:51;16.00;66.00
72905;DHT22;61048;52.162;4.516;2023-02-22T14:31:21;16.00;66.10
72905;DHT22;61048;52.162;4.516;2023-02-22T14:34:04;16.10;65.90
72905;DHT22;61048;52.162;4.516;2023-02-22T14:36:43;16.10;65.90
72905;DHT22;61048;52.162;4.516;2023-02-22T14:39:18;16.10;65.90
72905;DHT22;61048;52.162;4.516;2023-02-22T14:41:50;16.10;65.80
72905;DHT22;61048;52.162;4.516;2023-02-22T14:44:24;16.00;65.90
72905;DHT22;61048;52.162;4.516;2023-02-22T14:46:55;16.00;65.80
72905;DHT22;61048;52.162;4.516;2023-02-22T14:49:29;16.10;65.70
72905;DHT22;61048;52.162;4.516;2023-02-22T14:51:59;16.10;65.70
72905;DHT22;61048;52.162;4.516;2023-02-22T14:54:31;16.00;65.70
72905;DHT22;61048;52.162;4.516;2023-02-22T14:57:08;16.10;65.60
72905;DHT22;61048;52.162;4.516;2023-02-22T14:59:56;16.10;65.60
72905;DHT22;61048;52.162;4.516;2023-02-22T15:02:26;16.10;65.80
72905;DHT22;61048;52.162;4.516;2023-02-22T15:05:03;16.20;65.60
72905;DHT22;61048;52.162;4.516;2023-02-22T15:07:31;16.20;65.80
72905;DHT22;61048;52.162;4.516;2023-02-22T15:10:16;16.30;65.50
72905;DHT22;61048;52.162;4.516;2023-02-22T15:12:50;16.20;65.50
72905;DHT22;61048;52.162;4.516;2023-02-22T15:15:21;16.20;65.60
72905;DHT22;61048;52.162;4.516;2023-02-22T15:17:53;16.10;65.50
72905;DHT22;61048;52.162;4.516;2023-02-22T15:20:21;16.10;65.50
72905;DHT22;61048;52.162;4.516;2023-02-22T15:22:49;16.10;65.40
72905;DHT22;61048;52.162;4.516;2023-02-22T15:25:23;16.00;65.30
72905;DHT22;61048;52.162;4.516;2023-02-22T15:27:51;16.00;65.20
72905;DHT22;61048;52.162;4.516;2023-02-22T15:30:22;16.00;65.20
72905;DHT22;61048;52.162;4.516;2023-02-22T15:32:51;16.00;65.10
72905;DHT22;61048;52.162;4.516;2023-02-22T15:35:24;16.00;65.20
72905;DHT22;61048;52.162;4.516;2023-02-22T15:37:58;16.00;65.10
72905;DHT22;61048;52.162;4.516;2023-02-22T15:40:25;16.00;65.10
72905;DHT22;61048;52.162;4.516;2023-02-22T15:42:58;16.00;65.00
72905;DHT22;61048;52.162;4.516;2023-02-22T15:45:29;16.00;65.00
72905;DHT22;61048;52.162;4.516;2023-02-22T15:47:57;16.00;65.00
72905;DHT22;61048;52.162;4.516;2023-02-22T15:50:27;16.00;64.90
72905;DHT22;61048;52.162;4.516;2023-02-22T15:52:56;16.00;64.90
72905;DHT22;61048;52.162;4.516;2023-02-22T15:55:26;16.00;65.00
72905;DHT22;61048;52.162;4.516;2023-02-22T15:57:56;16.00;64.90
72905;DHT22;61048;52.162;4.516;2023-02-22T16:00:26;16.00;65.00
72905;DHT22;61048;52.162;4.516;2023-02-22T16:03:02;15.90;64.90
72905;DHT22;61048;52.162;4.516;2023-02-22T16:05:36;15.90;64.90
72905;DHT22;61048;52.162;4.516;2023-02-22T16:08:11;15.90;64.90
72905;DHT22;61048;52.162;4.516;2023-02-22T16:10:46;15.90;64.80